createdAt,value
2018-01-22T00:00:45.477Z,3.65
2018-01-22T00:03:13.142Z,5.07
2018-01-22T00:05:40.725Z,4.37
2018-01-22T00:08:08.366Z,3.85
2018-01-22T00:10:36.702Z,4.62
2018-01-22T00:13:04.242Z,5.05
2018-01-22T00:15:31.918Z,4.57
2018-01-22T00:17:59.482Z,5.30
2018-01-22T00:20:27.957Z,8.32
2018-01-22T00:22:55.671Z,4.70
2018-01-22T00:25:24.050Z,6.50
2018-01-22T00:27:52.383Z,7.40
2018-01-22T00:30:20.861Z,7.68
2018-01-22T00:32:49.200Z,7.62
2018-01-22T00:35:17.541Z,10.07
2018-01-22T00:37:45.319Z,8.15
2018-01-22T00:40:13.003Z,8.60
2018-01-22T00:42:40.657Z,9.50
2018-01-22T00:45:09.046Z,8.90
2018-01-22T00:47:36.597Z,8.98
2018-01-22T00:50:04.952Z,11.50
2018-01-22T00:52:32.737Z,12.10
2018-01-22T00:55:00.306Z,13.88
2018-01-22T00:57:27.826Z,14.20
2018-01-22T00:59:55.326Z,15.05
2018-01-22T01:02:22.805Z,15.82
2018-01-22T01:04:50.432Z,13.50
2018-01-22T01:07:18.043Z,17.15
2018-01-22T01:09:45.653Z,20.98
2018-01-22T01:12:14.036Z,16.02
2018-01-22T01:14:41.641Z,18.25
2018-01-22T01:17:09.258Z,19.17
2018-01-22T01:19:36.980Z,21.17
2018-01-22T01:22:04.591Z,20.02
2018-01-22T01:24:32.182Z,24.10
2018-01-22T01:27:00.514Z,21.48
2018-01-22T01:29:28.884Z,20.33
2018-01-22T01:31:57.181Z,19.27
2018-01-22T01:34:25.537Z,24.65
2018-01-22T01:36:53.942Z,20.88
2018-01-22T01:39:21.543Z,20.40
2018-01-22T01:41:49.063Z,21.92
2018-01-22T01:44:17.411Z,18.90
2018-01-22T01:46:45.794Z,17.95
2018-01-22T01:49:14.188Z,18.27
2018-01-22T01:51:41.857Z,16.62
2018-01-22T01:54:09.414Z,18.23
2018-01-22T01:56:36.990Z,14.75
2018-01-22T01:59:04.740Z,16.90
2018-01-22T02:01:32.370Z,15.70
2018-01-22T02:03:59.969Z,18.35
2018-01-22T02:06:27.721Z,19.83
2018-01-22T02:08:55.394Z,18.80
2018-01-22T02:11:23.067Z,20.83
2018-01-22T02:13:50.817Z,18.60
2018-01-22T02:16:18.501Z,22.67
2018-01-22T02:18:46.146Z,19.02
2018-01-22T02:21:14.705Z,18.25
2018-01-22T02:23:42.436Z,18.60
2018-01-22T02:26:10.193Z,19.12
2018-01-22T02:28:37.817Z,22.50
2018-01-22T02:31:05.477Z,20.92
2018-01-22T02:33:33.851Z,19.23
2018-01-22T02:36:01.622Z,18.05
2018-01-22T02:38:29.259Z,17.45
2018-01-22T02:40:56.802Z,16.48
2018-01-22T02:43:24.609Z,16.20
2018-01-22T02:45:52.169Z,17.48
2018-01-22T02:48:19.804Z,20.67
2018-01-22T02:50:47.499Z,17.52
2018-01-22T02:53:15.098Z,20.00
2018-01-22T02:55:42.767Z,17.00
2018-01-22T02:58:10.405Z,22.02
2018-01-22T03:00:38.852Z,18.58
2018-01-22T03:03:06.521Z,23.95
2018-01-22T03:05:34.940Z,21.70
2018-01-22T03:08:02.693Z,20.60
2018-01-22T03:10:30.330Z,26.25
2018-01-22T03:12:57.942Z,24.08
2018-01-22T03:15:25.503Z,21.65
2018-01-22T03:17:53.082Z,23.73
2018-01-22T03:20:20.743Z,20.67
2018-01-22T03:22:48.221Z,22.77
2018-01-22T03:25:15.754Z,23.20
2018-01-22T03:27:43.309Z,23.65
2018-01-22T03:30:10.802Z,20.73
2018-01-22T03:32:38.456Z,22.08
2018-01-22T03:35:06.119Z,23.75
2018-01-22T03:37:33.637Z,26.35
2018-01-22T03:40:01.116Z,24.98
2018-01-22T03:42:28.609Z,25.27
2018-01-22T03:44:56.869Z,27.02
2018-01-22T03:47:25.254Z,29.52
2018-01-22T03:49:52.844Z,24.30
2018-01-22T03:52:20.322Z,27.67
2018-01-22T03:54:47.805Z,29.48
2018-01-22T03:57:15.310Z,32.42
2018-01-22T03:59:42.795Z,33.40
2018-01-22T04:02:10.274Z,33.08
2018-01-22T04:04:37.768Z,32.90
2018-01-22T04:07:06.228Z,33.53
2018-01-22T04:09:33.775Z,34.15
2018-01-22T04:12:01.298Z,32.72
2018-01-22T04:14:28.769Z,35.15
2018-01-22T04:16:56.328Z,34.60
2018-01-22T04:19:23.877Z,33.22
2018-01-22T04:21:51.509Z,37.35
2018-01-22T04:24:19.145Z,37.65
2018-01-22T04:26:47.641Z,39.65
2018-01-22T04:29:15.894Z,36.20
2018-01-22T04:31:43.379Z,31.83
2018-01-22T04:34:11.690Z,39.10
2018-01-22T04:36:39.174Z,39.50
2018-01-22T04:39:06.650Z,42.75
2018-01-22T04:41:34.162Z,38.75
2018-01-22T04:44:01.645Z,36.80
2018-01-22T04:46:29.129Z,38.70
2018-01-22T04:48:56.637Z,34.67
2018-01-22T04:51:24.177Z,36.88
2018-01-22T04:53:51.736Z,34.80
2018-01-22T04:56:19.998Z,40.53
2018-01-22T04:58:48.253Z,35.40
2018-01-22T05:01:15.742Z,39.92
2018-01-22T05:03:44.056Z,49.17
2018-01-22T05:06:11.542Z,36.08
2018-01-22T05:08:39.155Z,34.00
2018-01-22T05:11:07.469Z,38.10
2018-01-22T05:13:34.937Z,40.55
2018-01-22T05:16:02.418Z,35.85
2018-01-22T05:18:30.003Z,37.05
2018-01-22T05:20:57.613Z,35.53
2018-01-22T05:23:25.110Z,42.70
2018-01-22T05:25:53.373Z,45.35
2018-01-22T05:28:21.007Z,42.22
2018-01-22T05:30:48.507Z,38.95
2018-01-22T05:33:16.801Z,35.28
2018-01-22T05:35:44.393Z,36.03
2018-01-22T05:38:11.956Z,43.33
2018-01-22T05:40:39.470Z,43.13
2018-01-22T05:43:06.977Z,38.72
2018-01-22T05:45:34.469Z,43.08
2018-01-22T05:48:02.863Z,42.20
2018-01-22T05:50:30.404Z,47.50
2018-01-22T05:52:58.839Z,33.65
2018-01-22T05:55:27.284Z,44.97
2018-01-22T05:57:55.603Z,39.67
2018-01-22T06:00:23.225Z,37.25
2018-01-22T06:02:51.546Z,33.28
2018-01-22T06:05:19.186Z,33.40
2018-01-22T06:07:46.827Z,34.50
2018-01-22T06:10:15.279Z,27.75
2018-01-22T06:12:43.748Z,37.30
2018-01-22T06:15:11.354Z,32.55
2018-01-22T06:17:38.996Z,35.03
2018-01-22T06:20:07.346Z,36.95
2018-01-22T06:22:34.918Z,37.47
2018-01-22T06:25:02.573Z,37.00
2018-01-22T06:27:30.118Z,30.92
2018-01-22T06:29:57.734Z,30.33
2018-01-22T06:32:25.457Z,30.10
2018-01-22T06:34:53.094Z,30.02
2018-01-22T06:37:20.775Z,30.37
2018-01-22T06:39:48.390Z,28.92
2018-01-22T06:42:16.051Z,30.25
2018-01-22T06:44:43.562Z,30.37
2018-01-22T06:47:12.606Z,35.10
2018-01-22T06:49:40.110Z,26.92
2018-01-22T06:52:07.598Z,34.35
2018-01-22T06:54:35.858Z,30.05
2018-01-22T06:57:03.346Z,34.50
2018-01-22T06:59:31.601Z,32.33
2018-01-22T07:01:59.211Z,26.75
2018-01-22T07:04:26.745Z,32.35
2018-01-22T07:06:55.078Z,25.05
2018-01-22T07:09:22.690Z,25.27
2018-01-22T07:11:50.224Z,28.77
2018-01-22T07:14:18.483Z,30.62
2018-01-22T07:16:46.061Z,30.23
2018-01-22T07:19:14.317Z,31.25
2018-01-22T07:21:41.892Z,27.70
2018-01-22T07:24:09.374Z,27.23
2018-01-22T07:26:37.633Z,27.37
2018-01-22T07:29:05.993Z,22.83
2018-01-22T07:31:33.493Z,28.15
2018-01-22T07:34:01.004Z,26.87
2018-01-22T07:36:28.498Z,27.70
2018-01-22T07:38:56.754Z,34.60
2018-01-22T07:41:24.233Z,26.85
2018-01-22T07:43:52.514Z,28.08
2018-01-22T07:46:20.765Z,36.83
2018-01-22T07:48:48.256Z,39.20
2018-01-22T07:51:16.522Z,33.35
2018-01-22T07:53:45.003Z,32.53
2018-01-22T07:56:13.278Z,32.42
2018-01-22T07:58:41.533Z,33.15
2018-01-22T08:01:09.033Z,35.85
2018-01-22T08:03:36.562Z,31.67
2018-01-22T08:06:04.154Z,38.08
2018-01-22T08:08:31.653Z,29.08
2018-01-22T08:10:59.142Z,37.50
2018-01-22T08:13:27.458Z,37.30
2018-01-22T08:15:54.945Z,35.20
2018-01-22T08:18:22.433Z,44.40
2018-01-22T08:20:50.714Z,33.72
2018-01-22T08:23:19.058Z,34.72
2018-01-22T08:25:46.550Z,29.67
2018-01-22T08:28:14.798Z,30.00
2018-01-22T08:30:42.546Z,33.55
2018-01-22T08:33:10.033Z,38.30
2018-01-22T08:35:37.518Z,36.08
2018-01-22T08:38:05.813Z,35.08
2018-01-22T08:40:33.301Z,40.80
2018-01-22T08:43:00.789Z,35.55
2018-01-22T08:45:28.334Z,35.38
2018-01-22T08:47:55.878Z,38.15
2018-01-22T08:50:23.485Z,40.80
2018-01-22T08:52:50.937Z,35.00
2018-01-22T08:55:19.265Z,36.17
2018-01-22T08:57:46.773Z,39.10
2018-01-22T09:00:15.061Z,33.17
2018-01-22T09:02:43.318Z,33.47
2018-01-22T09:05:10.862Z,38.55
2018-01-22T09:07:38.349Z,37.37
2018-01-22T09:10:06.606Z,35.90
2018-01-22T09:12:34.204Z,37.50
2018-01-22T09:15:01.694Z,46.13
2018-01-22T09:17:29.191Z,31.37
2018-01-22T09:19:56.738Z,26.52
2018-01-22T09:22:24.261Z,30.33
2018-01-22T09:24:51.750Z,37.28
2018-01-22T09:27:19.343Z,31.40
2018-01-22T09:29:47.601Z,31.75
2018-01-22T09:32:15.094Z,36.80
2018-01-22T09:34:42.644Z,30.90
2018-01-22T09:37:10.142Z,30.52
2018-01-22T09:39:37.669Z,27.00
2018-01-22T09:42:05.193Z,26.30
2018-01-22T09:44:32.669Z,32.00
2018-01-22T09:47:00.950Z,36.37
2018-01-22T09:49:29.501Z,25.20
2018-01-22T09:51:57.010Z,34.28
2018-01-22T09:54:24.515Z,26.73
2018-01-22T09:56:52.127Z,37.93
2018-01-22T09:59:19.691Z,22.57
2018-01-22T10:01:47.268Z,27.67
2018-01-22T10:04:14.778Z,26.55
2018-01-22T10:06:42.269Z,23.57
2018-01-22T10:09:09.824Z,26.53
2018-01-22T10:11:37.358Z,22.98
2018-01-22T10:14:04.967Z,26.40
2018-01-22T10:16:32.478Z,25.40
2018-01-22T10:19:00.970Z,18.55
2018-01-22T10:21:29.479Z,24.98
2018-01-22T10:23:57.010Z,22.15
2018-01-22T10:26:25.289Z,20.15
2018-01-22T10:28:53.718Z,23.83
2018-01-22T10:31:21.201Z,20.10
2018-01-22T10:33:48.712Z,21.97
2018-01-22T10:36:16.371Z,18.10
2018-01-22T10:38:43.875Z,22.58
2018-01-22T10:41:11.379Z,26.10
2018-01-22T10:43:38.929Z,21.67
2018-01-22T10:46:07.214Z,17.33
2018-01-22T10:48:35.074Z,23.87
2018-01-22T10:51:03.559Z,18.40
2018-01-22T10:53:31.920Z,20.10
2018-01-22T10:55:59.488Z,19.15
2018-01-22T10:58:27.083Z,29.98
2018-01-22T11:00:54.594Z,21.17
2018-01-22T11:03:22.101Z,18.60
2018-01-22T11:05:49.630Z,18.77
2018-01-22T11:08:17.238Z,23.10
2018-01-22T11:10:44.750Z,32.03
2018-01-22T11:13:13.287Z,19.90
2018-01-22T11:15:46.602Z,23.37
2018-01-22T11:18:14.232Z,31.62
2018-01-22T11:20:41.824Z,30.12
2018-01-22T11:23:09.306Z,35.75
2018-01-22T11:25:36.866Z,33.05
2018-01-22T11:28:05.149Z,36.25
2018-01-22T11:30:33.427Z,40.97
2018-01-22T11:33:01.746Z,35.80
2018-01-22T11:35:29.267Z,26.62
2018-01-22T11:37:56.958Z,38.40
2018-01-22T11:40:24.519Z,31.10
2018-01-22T11:42:52.017Z,34.17
2018-01-22T11:45:19.509Z,25.10
2018-01-22T11:47:47.247Z,28.95
2018-01-22T11:50:14.942Z,33.75
2018-01-22T11:52:42.470Z,26.62
2018-01-22T11:55:09.953Z,21.13
2018-01-22T11:57:37.508Z,21.63
2018-01-22T12:00:05.766Z,28.20
2018-01-22T12:02:33.247Z,21.97
2018-01-22T12:05:01.522Z,19.73
2018-01-22T12:07:29.774Z,22.73
2018-01-22T12:09:57.357Z,31.13
2018-01-22T12:12:25.694Z,31.23
2018-01-22T12:14:54.094Z,28.87
2018-01-22T12:17:21.611Z,22.57
2018-01-22T12:19:49.094Z,21.97
2018-01-22T12:22:16.775Z,23.73
2018-01-22T12:24:44.374Z,27.60
2018-01-22T12:27:12.012Z,17.93
2018-01-22T12:29:39.507Z,19.00
2018-01-22T12:32:07.139Z,25.97
2018-01-22T12:34:35.424Z,15.30
2018-01-22T12:37:02.922Z,26.13
2018-01-22T12:39:30.442Z,18.07
2018-01-22T12:41:58.614Z,20.73
2018-01-22T12:44:27.028Z,16.83
2018-01-22T12:46:54.579Z,16.87
2018-01-22T12:49:22.836Z,18.27
2018-01-22T12:51:50.566Z,19.83
2018-01-22T12:54:18.109Z,14.27
2018-01-22T12:56:45.793Z,19.60
2018-01-22T12:59:14.098Z,13.47
2018-01-22T13:01:42.158Z,12.80
2018-01-22T13:04:10.406Z,17.53
2018-01-22T13:06:37.893Z,12.03
2018-01-22T13:09:06.200Z,16.23
2018-01-22T13:11:35.410Z,13.20
2018-01-22T13:14:02.900Z,14.03
2018-01-22T13:16:30.389Z,14.80
2018-01-22T13:18:57.930Z,28.53
2018-01-22T13:21:25.433Z,13.90
2018-01-22T13:23:52.921Z,14.73
2018-01-22T13:26:20.470Z,18.93
2018-01-22T13:28:47.946Z,11.03
2018-01-22T13:31:15.437Z,12.47
2018-01-22T13:33:43.806Z,9.50
2018-01-22T13:36:12.058Z,11.60
2018-01-22T13:38:41.057Z,17.30
2018-01-22T13:41:12.537Z,10.33
2018-01-22T13:43:40.785Z,15.30
2018-01-22T13:46:08.277Z,16.17
2018-01-22T13:48:35.821Z,11.53
2018-01-22T13:51:03.303Z,12.50
2018-01-22T13:53:30.906Z,18.43
2018-01-22T13:55:58.398Z,12.13
2018-01-22T13:58:25.877Z,9.73
2018-01-22T14:00:53.423Z,10.40
2018-01-22T14:03:21.673Z,9.93
2018-01-22T14:05:49.157Z,13.47
2018-01-22T14:08:17.465Z,9.57
2018-01-22T14:10:44.956Z,11.60
2018-01-22T14:13:12.454Z,10.93
2018-01-22T14:15:40.764Z,9.77
2018-01-22T14:18:08.246Z,15.30
2018-01-22T14:20:35.733Z,8.30
2018-01-22T14:23:03.245Z,11.07
2018-01-22T14:25:30.734Z,15.07
2018-01-22T14:27:58.225Z,11.40
2018-01-22T14:30:25.769Z,13.60
2018-01-22T14:32:53.250Z,6.23
2018-01-22T14:35:21.494Z,10.47
2018-01-22T14:37:49.138Z,10.90
2018-01-22T14:40:17.388Z,9.40
2018-01-22T14:42:44.873Z,9.40
2018-01-22T14:45:12.410Z,12.10
2018-01-22T14:47:39.890Z,7.50
2018-01-22T14:50:07.369Z,13.90
2018-01-22T14:52:34.877Z,8.40
2018-01-22T14:55:02.368Z,9.17
2018-01-22T14:57:29.838Z,7.80
2018-01-22T14:59:57.381Z,13.40
2018-01-22T15:02:24.861Z,11.43
2018-01-22T15:04:52.342Z,10.83
2018-01-22T15:07:20.618Z,9.17
2018-01-22T15:09:48.870Z,13.40
2018-01-22T15:12:16.362Z,13.73
2018-01-22T15:14:44.670Z,13.80
2018-01-22T15:17:12.157Z,12.67
2018-01-22T15:19:39.634Z,8.50
2018-01-22T15:22:07.997Z,9.83
2018-01-22T15:24:35.484Z,11.00
2018-01-22T15:27:03.750Z,16.80
2018-01-22T15:29:31.286Z,13.27
2018-01-22T15:31:58.789Z,16.00
2018-01-22T15:34:26.294Z,16.87
2018-01-22T15:36:53.846Z,22.00
2018-01-22T15:39:21.326Z,15.30
2018-01-22T15:41:48.818Z,11.32
2018-01-22T15:44:16.341Z,14.82
2018-01-22T15:46:43.841Z,11.48
2018-01-22T15:49:11.326Z,18.98
2018-01-22T15:51:38.885Z,16.02
2018-01-22T15:54:06.384Z,10.65
2018-01-22T15:56:33.873Z,17.17
2018-01-22T15:59:01.390Z,11.48
2018-01-22T16:01:28.880Z,19.20
2018-01-22T16:03:57.130Z,10.48
2018-01-22T16:06:24.682Z,13.88
2018-01-22T16:08:52.182Z,17.45
2018-01-22T16:11:19.673Z,12.75
2018-01-22T16:13:47.226Z,12.75
2018-01-22T16:16:14.710Z,16.83
2018-01-22T16:18:42.197Z,15.63
2018-01-22T16:21:09.738Z,19.35
2018-01-22T16:23:37.233Z,14.85
2018-01-22T16:26:05.478Z,18.90
2018-01-22T16:28:32.981Z,18.37
2018-01-22T16:31:00.470Z,13.45
2018-01-22T16:33:27.958Z,21.35
2018-01-22T16:35:55.498Z,11.43
2018-01-22T16:38:22.973Z,19.45
2018-01-22T16:40:51.286Z,15.57
2018-01-22T16:43:18.835Z,18.10
2018-01-22T16:45:47.086Z,23.00
2018-01-22T16:48:14.579Z,14.38
2018-01-22T16:50:42.833Z,23.70
2018-01-22T16:53:10.333Z,16.75
2018-01-22T16:55:37.823Z,15.98
2018-01-22T16:58:05.390Z,11.35
2018-01-22T17:00:32.897Z,17.23
2018-01-22T17:03:00.378Z,20.62
2018-01-22T17:05:28.107Z,13.05
2018-01-22T17:07:56.354Z,16.85
2018-01-22T17:10:23.852Z,19.90
2018-01-22T17:12:51.385Z,17.95
2018-01-22T17:15:18.870Z,11.40
2018-01-22T17:17:46.355Z,17.27
2018-01-22T17:20:13.846Z,17.35
2018-01-22T17:22:41.361Z,17.65
2018-01-22T17:25:08.834Z,15.82
2018-01-22T17:27:36.411Z,17.87
2018-01-22T17:30:04.068Z,24.48
2018-01-22T17:32:31.658Z,16.85
2018-01-22T17:34:59.201Z,16.95
2018-01-22T17:37:26.678Z,19.92
2018-01-22T17:39:54.157Z,13.50
2018-01-22T17:42:22.425Z,15.98
2018-01-22T17:44:50.670Z,14.93
2018-01-22T17:47:18.156Z,16.87
2018-01-22T17:49:46.573Z,18.65
2018-01-22T17:52:14.054Z,14.93
2018-01-22T17:54:41.575Z,18.35
2018-01-22T17:57:09.126Z,15.07
2018-01-22T17:59:37.373Z,21.33
2018-01-22T18:02:04.853Z,17.15
2018-01-22T18:04:33.153Z,21.95
2018-01-22T18:07:00.643Z,12.65
2018-01-22T18:09:28.118Z,16.00
2018-01-22T18:11:56.481Z,22.00
2018-01-22T18:14:23.958Z,20.77
2018-01-22T18:16:51.445Z,18.77
2018-01-22T18:19:19.752Z,17.05
2018-01-22T18:21:47.237Z,16.30
2018-01-22T18:24:15.479Z,15.32
2018-01-22T18:26:42.965Z,17.52
2018-01-22T18:29:10.521Z,18.80
2018-01-22T18:31:38.098Z,13.57
2018-01-22T18:34:05.670Z,13.73
2018-01-22T18:36:33.263Z,26.48
2018-01-22T18:39:01.534Z,13.57
2018-01-22T18:41:29.789Z,17.92
2018-01-22T18:43:57.270Z,15.52
2018-01-22T18:46:25.579Z,15.80
2018-01-22T18:48:53.067Z,13.68
2018-01-22T18:51:20.546Z,22.23
2018-01-22T18:53:48.078Z,22.35
2018-01-22T18:56:15.552Z,13.35
2018-01-22T18:58:43.072Z,17.48
2018-01-22T19:01:10.649Z,18.60
2018-01-22T19:03:38.217Z,16.73
2018-01-22T19:06:05.701Z,17.92
2018-01-22T19:08:33.190Z,20.40
2018-01-22T19:11:06.598Z,21.73
2018-01-22T19:13:34.094Z,21.62
2018-01-22T19:16:01.574Z,25.02
2018-01-22T19:18:29.121Z,20.30
2018-01-22T19:20:57.165Z,20.33
2018-01-22T19:23:24.646Z,18.40
2018-01-22T19:25:52.234Z,27.60
2018-01-22T19:28:20.517Z,17.42
2018-01-22T19:30:48.777Z,19.67
2018-01-22T19:33:16.275Z,24.70
2018-01-22T19:35:43.841Z,21.42
2018-01-22T19:38:11.321Z,16.45
2018-01-22T19:40:38.862Z,18.42
2018-01-22T19:43:06.449Z,21.05
2018-01-22T19:45:34.943Z,20.55
2018-01-22T19:48:02.637Z,24.58
2018-01-22T19:50:30.193Z,24.63
2018-01-22T19:52:57.790Z,20.30
2018-01-22T19:55:25.386Z,18.15
2018-01-22T19:57:52.858Z,26.25
2018-01-22T20:00:20.362Z,26.73
2018-01-22T20:02:49.054Z,14.23
2018-01-22T20:05:16.577Z,17.85
2018-01-22T20:07:44.852Z,26.85
2018-01-22T20:10:12.418Z,20.45
2018-01-22T20:12:39.948Z,30.50
2018-01-22T20:15:08.307Z,19.65
2018-01-22T20:17:35.799Z,22.58
2018-01-22T20:20:03.503Z,14.63
2018-01-22T20:22:31.213Z,23.10
2018-01-22T20:24:58.710Z,16.95
2018-01-22T20:27:26.211Z,20.60
2018-01-22T20:29:53.797Z,17.45
2018-01-22T20:32:21.438Z,21.62
2018-01-22T20:34:49.068Z,15.50
2018-01-22T20:37:16.647Z,18.77
2018-01-22T20:39:44.129Z,20.05
2018-01-22T20:42:11.635Z,25.23
2018-01-22T20:44:39.158Z,15.15
2018-01-22T20:47:06.642Z,18.27
2018-01-22T20:49:34.143Z,15.05
2018-01-22T20:52:01.689Z,19.65
2018-01-22T20:54:29.173Z,20.35
2018-01-22T20:56:56.675Z,23.12
2018-01-22T20:59:24.224Z,12.95
2018-01-22T21:01:52.474Z,24.02
2018-01-22T21:04:19.961Z,16.55
2018-01-22T21:06:48.226Z,15.90
2018-01-22T21:09:16.474Z,19.73
2018-01-22T21:11:43.961Z,18.42
2018-01-22T21:14:12.248Z,21.55
2018-01-22T21:16:40.576Z,15.63
2018-01-22T21:19:08.091Z,19.87
2018-01-22T21:21:36.498Z,15.73
2018-01-22T21:24:04.002Z,16.12
2018-01-22T21:26:33.275Z,21.40
2018-01-22T21:29:12.181Z,22.60
2018-01-22T21:31:39.856Z,25.27
2018-01-22T21:34:08.958Z,21.37
2018-01-22T21:36:39.135Z,15.35
2018-01-22T21:39:08.372Z,19.25
2018-01-22T21:41:39.973Z,18.30
2018-01-22T21:44:15.881Z,19.50
2018-01-22T21:46:54.338Z,21.30
2018-01-22T21:49:33.609Z,14.02
2018-01-22T21:52:22.897Z,18.52
2018-01-22T21:54:55.220Z,18.50
2018-01-22T21:57:41.889Z,19.00
2018-01-22T22:00:15.954Z,18.10
2018-01-22T22:02:45.848Z,19.17
2018-01-22T22:05:20.762Z,17.80
2018-01-22T22:07:55.293Z,20.17
2018-01-22T22:10:25.176Z,21.17
2018-01-22T22:12:58.117Z,14.00
2018-01-22T22:15:29.296Z,26.40
2018-01-22T22:18:04.716Z,22.45
2018-01-22T22:20:35.966Z,20.37
2018-01-22T22:23:08.678Z,19.42
2018-01-22T22:25:46.045Z,16.30
2018-01-22T22:28:14.841Z,18.10
2018-01-22T22:30:42.487Z,24.08
2018-01-22T22:33:10.088Z,25.98
2018-01-22T22:35:37.814Z,17.73
2018-01-22T22:38:05.305Z,18.23
2018-01-22T22:40:32.782Z,22.25
2018-01-22T22:43:00.423Z,21.27
2018-01-22T22:45:28.054Z,18.37
2018-01-22T22:47:55.753Z,20.73
2018-01-22T22:50:24.232Z,25.45
2018-01-22T22:52:52.630Z,23.67
2018-01-22T22:55:20.358Z,15.95
2018-01-22T22:57:48.163Z,18.75
2018-01-22T23:00:16.548Z,15.95
2018-01-22T23:02:44.371Z,14.57
2018-01-22T23:05:12.021Z,16.27
2018-01-22T23:07:39.653Z,19.00
2018-01-22T23:10:07.260Z,18.12
2018-01-22T23:12:35.639Z,23.75
2018-01-22T23:15:03.202Z,20.12
2018-01-22T23:17:30.852Z,19.52
2018-01-22T23:19:58.467Z,21.10
2018-01-22T23:22:26.784Z,18.55
2018-01-22T23:24:54.413Z,15.98
2018-01-22T23:27:22.078Z,13.90
2018-01-22T23:29:50.607Z,18.70
2018-01-22T23:35:11.720Z,14.30
2018-01-22T23:37:48.364Z,18.25
2018-01-22T23:40:16.938Z,22.40
2018-01-22T23:42:44.653Z,12.48
2018-01-22T23:45:12.175Z,17.05
2018-01-22T23:47:39.694Z,16.17
2018-01-22T23:50:07.246Z,18.98
2018-01-22T23:52:34.859Z,19.37
2018-01-22T23:55:02.377Z,19.73
2018-01-22T23:57:30.951Z,21.15
2018-01-22T23:59:58.763Z,23.12
